Time;durP1;ratioP1;P1;durP2;ratioP2;P2;SDS_P1;SDS_P2;PMS_P1;PMS_P2;Temp;Humidity;BMP_temperature;BMP_pressure;BME280_temperature;BME280_humidity;BME280_pressure;Samples;Min_cycle;Max_cycle;Signal;HPM_P1;HPM_P2
2022/04/19 00:01:21;;;;;;;10.70;7.90;;;12.60;47.10;;;;;;5114011;28;20072;-68
2022/04/19 00:03:47;;;;;;;14.82;8.70;;;12.70;47.50;;;;;;5113966;28;20467;-69
2022/04/19 00:06:13;;;;;;;14.32;8.70;;;12.60;47.70;;;;;;5113915;28;20032;-68
2022/04/19 00:08:39;;;;;;;12.50;8.60;;;12.50;48.00;;;;;;5113872;28;20072;-69
2022/04/19 00:11:04;;;;;;;13.32;8.45;;;12.30;49.10;;;;;;5113820;28;20031;-68
2022/04/19 00:13:30;;;;;;;11.48;7.97;;;12.40;48.20;;;;;;5113804;28;20028;-68
2022/04/19 00:15:57;;;;;;;14.05;8.45;;;12.50;48.10;;;;;;5113476;28;20036;-68
2022/04/19 00:18:23;;;;;;;12.98;8.63;;;12.50;47.70;;;;;;5113767;28;20025;-69
2022/04/19 00:20:49;;;;;;;11.98;8.27;;;12.60;47.70;;;;;;5113732;28;20020;-69
2022/04/19 00:23:15;;;;;;;13.15;8.40;;;12.60;47.70;;;;;;5113650;28;20115;-69
2022/04/19 00:25:50;;;;;;;13.18;8.35;;;12.60;48.30;;;;;;5113661;28;20020;-69
2022/04/19 00:28:16;;;;;;;11.38;8.30;;;12.60;47.70;;;;;;5096050;28;20506;-69
2022/04/19 00:30:44;;;;;;;12.60;8.35;;;12.50;47.70;;;;;;5113588;28;20032;-69
2022/04/19 00:33:10;;;;;;;12.93;8.38;;;12.50;48.00;;;;;;5113497;28;20024;-69
2022/04/19 00:35:37;;;;;;;13.52;8.50;;;12.40;48.30;;;;;;5112816;28;20031;-69
2022/04/19 00:38:03;;;;;;;12.68;8.35;;;12.30;48.40;;;;;;5113497;28;20036;-70
2022/04/19 00:40:29;;;;;;;13.25;8.57;;;12.40;48.40;;;;;;5113471;28;20020;-69
2022/04/19 00:42:55;;;;;;;12.40;8.23;;;12.50;48.40;;;;;;5095654;28;20029;-69
2022/04/19 00:45:23;;;;;;;12.07;8.50;;;12.50;48.40;;;;;;5113419;28;20024;-69
2022/04/19 00:47:52;;;;;;;12.15;8.57;;;12.50;48.20;;;;;;5113415;28;20028;-69
2022/04/19 00:50:18;;;;;;;12.45;8.15;;;12.50;48.10;;;;;;5113490;28;20027;-69
2022/04/19 00:52:44;;;;;;;12.18;7.88;;;12.50;47.90;;;;;;5113325;28;20032;-69
2022/04/19 00:55:10;;;;;;;11.85;8.63;;;12.40;47.90;;;;;;5113315;28;20058;-69
2022/04/19 00:57:41;;;;;;;11.55;7.78;;;12.40;48.40;;;;;;5113206;28;20031;-68
2022/04/19 01:00:09;;;;;;;13.85;8.30;;;12.40;48.70;;;;;;5113246;28;20031;-69
2022/04/19 01:02:36;;;;;;;12.30;7.13;;;12.40;48.20;;;;;;5113247;28;20070;-69
2022/04/19 01:05:03;;;;;;;12.43;7.43;;;12.40;48.10;;;;;;5113227;28;20052;-69
2022/04/19 01:07:29;;;;;;;13.15;7.38;;;12.30;48.00;;;;;;5113158;28;20457;-69
2022/04/19 01:09:55;;;;;;;12.63;7.50;;;12.30;48.10;;;;;;5113163;28;20031;-68
2022/04/19 01:15:08;;;;;;;12.70;7.00;;;12.30;47.90;;;;;;5113272;28;20095;-69
2022/04/19 01:17:41;;;;;;;9.18;6.85;;;12.30;47.90;;;;;;5112828;28;20048;-69
2022/04/19 01:20:08;;;;;;;10.98;7.47;;;12.20;48.30;;;;;;5113088;28;20042;-68
2022/04/19 01:22:35;;;;;;;11.02;7.00;;;12.10;48.40;;;;;;5113033;28;20035;-69
2022/04/19 01:25:00;;;;;;;11.45;7.35;;;12.10;48.40;;;;;;5113024;28;20020;-68
2022/04/19 01:27:26;;;;;;;11.50;7.20;;;12.10;48.20;;;;;;5113104;28;20048;-68
2022/04/19 01:29:57;;;;;;;11.98;6.93;;;12.00;48.30;;;;;;5112914;28;20036;-68
2022/04/19 01:32:22;;;;;;;9.27;6.43;;;12.00;48.50;;;;;;5113013;28;20499;-68
2022/04/19 01:34:48;;;;;;;11.27;7.32;;;12.00;48.30;;;;;;5095060;28;20046;-68
2022/04/19 01:37:15;;;;;;;10.65;7.07;;;11.90;48.30;;;;;;5112861;28;20043;-69
2022/04/19 01:42:25;;;;;;;10.57;6.90;;;11.90;48.50;;;;;;5112896;28;20027;-68
2022/04/19 01:44:50;;;;;;;11.00;6.80;;;11.90;48.60;;;;;;5112828;28;20415;-69
2022/04/19 01:47:16;;;;;;;9.30;6.45;;;11.90;48.50;;;;;;5114225;28;20040;-68
2022/04/19 01:49:41;;;;;;;10.85;7.05;;;12.00;48.50;;;;;;5116541;28;20036;-68
2022/04/19 01:52:08;;;;;;;10.95;6.57;;;12.00;48.50;;;;;;5098496;28;20064;-69
2022/04/19 01:54:34;;;;;;;12.00;7.72;;;12.00;48.50;;;;;;5116506;28;20088;-69
2022/04/19 01:57:00;;;;;;;10.70;6.93;;;12.00;48.30;;;;;;5116341;28;20039;-68
2022/04/19 01:59:25;;;;;;;10.60;7.35;;;12.00;48.20;;;;;;5116343;28;20024;-68
2022/04/19 02:01:51;;;;;;;11.77;7.28;;;11.90;48.00;;;;;;5116320;28;20118;-68
2022/04/19 02:04:18;;;;;;;12.55;7.93;;;11.90;48.20;;;;;;5116245;28;20040;-68
2022/04/19 02:06:44;;;;;;;11.65;7.32;;;11.90;48.30;;;;;;5116225;28;20032;-68
2022/04/19 02:09:09;;;;;;;11.93;7.90;;;11.80;48.30;;;;;;5116313;28;20040;-68
2022/04/19 02:11:37;;;;;;;10.35;7.57;;;11.80;48.40;;;;;;5116275;28;20053;-68
2022/04/19 02:14:03;;;;;;;12.75;7.22;;;11.80;48.70;;;;;;5116084;28;20028;-68
2022/04/19 02:16:31;;;;;;;12.43;7.68;;;11.80;48.80;;;;;;5115822;28;20051;-68
2022/04/19 02:18:57;;;;;;;11.23;7.28;;;11.80;49.00;;;;;;5116107;28;20024;-69
2022/04/19 02:21:23;;;;;;;10.98;7.30;;;11.70;49.10;;;;;;5115977;28;20026;-69
2022/04/19 02:23:49;;;;;;;10.40;7.13;;;11.50;49.50;;;;;;5115844;28;20017;-68
2022/04/19 02:26:15;;;;;;;13.00;7.63;;;11.30;50.10;;;;;;5115847;28;20054;-68
2022/04/19 02:28:40;;;;;;;12.13;7.43;;;11.30;50.50;;;;;;5115703;28;20079;-68
2022/04/19 02:31:08;;;;;;;11.95;7.53;;;11.40;50.60;;;;;;5115737;28;20433;-68
2022/04/19 02:33:34;;;;;;;12.32;7.70;;;11.40;51.10;;;;;;5115727;28;20081;-68
2022/04/19 02:36:00;;;;;;;13.20;8.07;;;11.20;52.40;;;;;;5115710;28;20051;-68
2022/04/19 02:38:25;;;;;;;13.00;7.70;;;11.20;52.20;;;;;;5115581;28;20035;-69
2022/04/19 02:40:51;;;;;;;11.38;6.93;;;11.20;51.90;;;;;;5115591;28;20050;-69
2022/04/19 02:43:17;;;;;;;11.45;7.10;;;11.10;51.80;;;;;;5115488;28;20031;-70
2022/04/19 02:45:43;;;;;;;13.35;7.78;;;10.90;52.00;;;;;;5115469;28;20027;-70
2022/04/19 02:48:09;;;;;;;12.60;7.88;;;10.90;52.20;;;;;;5115415;28;20024;-69
2022/04/19 02:50:45;;;;;;;10.68;7.15;;;10.90;52.20;;;;;;5115485;28;20091;-68
2022/04/19 02:53:11;;;;;;;12.18;7.80;;;11.00;52.10;;;;;;5115482;28;20035;-68
2022/04/19 02:55:37;;;;;;;14.88;7.70;;;11.10;51.80;;;;;;5115268;28;20056;-68
2022/04/19 02:58:03;;;;;;;11.10;7.60;;;11.20;51.80;;;;;;5114867;28;20032;-68
2022/04/19 03:00:29;;;;;;;13.00;7.68;;;11.00;52.20;;;;;;5114800;28;20026;-68
2022/04/19 03:02:55;;;;;;;12.77;8.15;;;11.00;52.10;;;;;;5115097;28;20032;-68
2022/04/19 03:05:21;;;;;;;13.18;8.10;;;10.80;52.30;;;;;;5115051;28;20024;-68
2022/04/19 03:07:49;;;;;;;13.43;7.57;;;10.70;52.50;;;;;;5115064;28;20032;-68
2022/04/19 03:10:16;;;;;;;12.20;7.97;;;10.80;52.20;;;;;;5114990;28;20024;-68
2022/04/19 03:12:43;;;;;;;12.27;7.70;;;10.80;52.10;;;;;;5114927;28;20161;-68
2022/04/19 03:15:11;;;;;;;14.02;7.85;;;10.80;52.00;;;;;;5114882;28;20107;-68
2022/04/19 03:17:37;;;;;;;12.38;7.22;;;10.80;52.20;;;;;;5114597;28;20036;-68
2022/04/19 03:20:03;;;;;;;11.52;7.85;;;10.80;52.10;;;;;;5114782;28;20016;-68
2022/04/19 03:27:41;;;;;;;13.95;8.05;;;10.90;52.80;;;;;;5114740;28;20028;-69
2022/04/19 03:27:59;;;;;;;13.40;8.07;;;10.80;51.70;;;;;;5114695;28;20093;-69
2022/04/19 03:30:24;;;;;;;11.88;7.55;;;10.80;51.90;;;;;;5114597;28;20040;-68
2022/04/19 03:32:52;;;;;;;14.90;8.50;;;10.80;51.90;;;;;;5114551;28;20032;-69
2022/04/19 03:35:19;;;;;;;12.60;8.50;;;10.60;51.90;;;;;;5114485;28;20021;-69
2022/04/19 03:37:44;;;;;;;12.43;8.38;;;10.50;52.10;;;;;;5114467;28;20036;-69
2022/04/19 03:40:10;;;;;;;13.55;9.00;;;10.30;52.90;;;;;;5114402;28;20032;-69
2022/04/19 03:42:35;;;;;;;13.48;8.40;;;10.20;52.90;;;;;;5114360;28;20036;-69
2022/04/19 03:45:01;;;;;;;14.38;8.70;;;10.10;52.70;;;;;;5114326;28;20048;-69
2022/04/19 03:47:27;;;;;;;14.43;8.70;;;10.00;53.00;;;;;;5114248;28;20024;-69
2022/04/19 03:49:52;;;;;;;12.95;8.32;;;10.00;53.30;;;;;;5114250;28;20059;-69
2022/04/19 03:52:18;;;;;;;15.88;8.82;;;10.00;53.40;;;;;;5114287;28;20028;-69
2022/04/19 03:54:43;;;;;;;12.85;8.52;;;10.00;53.50;;;;;;5114159;28;20032;-69
2022/04/19 03:57:10;;;;;;;15.95;9.02;;;10.10;53.40;;;;;;5114065;28;20021;-69
2022/04/19 03:59:38;;;;;;;13.45;8.07;;;10.10;53.40;;;;;;5114051;28;20050;-69
2022/04/19 04:02:05;;;;;;;14.30;8.50;;;10.00;53.90;;;;;;5096130;28;20031;-69
2022/04/19 04:04:31;;;;;;;15.10;8.88;;;10.00;54.00;;;;;;5113992;28;20087;-67
2022/04/19 04:07:00;;;;;;;12.88;8.52;;;9.90;53.90;;;;;;5113946;28;20024;-70
2022/04/19 04:09:32;;;;;;;15.30;9.35;;;9.90;54.50;;;;;;5113812;28;20051;-68
2022/04/19 04:12:02;;;;;;;18.35;9.80;;;9.90;54.40;;;;;;5113247;28;20058;-68
2022/04/19 04:14:29;;;;;;;16.33;9.30;;;10.00;54.70;;;;;;5113874;28;20024;-68
2022/04/19 04:16:54;;;;;;;17.33;9.07;;;10.10;54.70;;;;;;5095820;28;20044;-68
2022/04/19 04:19:20;;;;;;;14.70;9.57;;;10.00;55.40;;;;;;5113758;28;20055;-68
2022/04/19 04:21:46;;;;;;;16.95;9.30;;;9.80;55.60;;;;;;5113679;28;20032;-69
2022/04/19 04:24:11;;;;;;;21.20;10.05;;;9.80;55.80;;;;;;5095794;28;20020;-68
2022/04/19 04:26:37;;;;;;;14.25;9.13;;;9.90;55.90;;;;;;5113590;28;20035;-69
2022/04/19 04:29:02;;;;;;;12.98;8.68;;;9.90;55.70;;;;;;5113535;28;20039;-68
2022/04/19 04:31:28;;;;;;;16.05;9.13;;;10.00;55.30;;;;;;5113693;28;20048;-69
2022/04/19 04:33:53;;;;;;;15.55;9.13;;;10.00;55.10;;;;;;5113531;28;20056;-69
2022/04/19 04:36:19;;;;;;;16.63;9.00;;;10.10;55.30;;;;;;5113382;28;20116;-69
2022/04/19 04:38:45;;;;;;;17.00;10.00;;;10.10;55.30;;;;;;5113485;28;20114;-69
2022/04/19 04:41:11;;;;;;;17.60;9.50;;;10.10;55.40;;;;;;5113430;28;20025;-69
2022/04/19 04:43:39;;;;;;;16.65;8.75;;;10.10;55.30;;;;;;5095493;28;20046;-68
2022/04/19 04:51:33;;;;;;;17.23;9.82;;;9.90;56.00;;;;;;5113457;28;20034;-69
2022/04/19 04:53:59;;;;;;;15.23;9.13;;;9.80;56.40;;;;;;5113327;28;20036;-68
2022/04/19 04:56:25;;;;;;;17.17;9.32;;;9.80;56.70;;;;;;5113275;28;20454;-68
2022/04/19 04:58:50;;;;;;;15.32;9.65;;;9.70;57.00;;;;;;5113150;28;20042;-68
2022/04/19 05:01:16;;;;;;;14.65;9.38;;;9.60;57.20;;;;;;5113359;28;20028;-68
2022/04/19 05:03:41;;;;;;;18.45;9.93;;;9.60;57.20;;;;;;5095435;28;20032;-69
2022/04/19 05:06:07;;;;;;;17.80;11.13;;;9.40;57.70;;;;;;5113186;28;20024;-70
2022/04/19 05:08:33;;;;;;;18.25;10.45;;;9.50;57.80;;;;;;5113166;28;20083;-69
2022/04/19 05:10:58;;;;;;;18.00;10.75;;;9.50;58.30;;;;;;5113144;28;20065;-69
2022/04/19 05:13:25;;;;;;;21.92;11.43;;;9.40;58.30;;;;;;5113289;28;20032;-69
2022/04/19 05:15:50;;;;;;;16.65;10.80;;;9.50;58.60;;;;;;5113216;28;20022;-69
2022/04/19 05:18:16;;;;;;;18.75;10.98;;;9.50;58.50;;;;;;5112934;28;20044;-69
2022/04/19 05:20:42;;;;;;;20.85;11.55;;;9.60;58.40;;;;;;5113042;28;20039;-69
2022/04/19 05:23:09;;;;;;;19.08;11.60;;;9.60;59.10;;;;;;5098109;28;20024;-69
2022/04/19 05:25:35;;;;;;;19.08;10.85;;;9.70;58.10;;;;;;5117089;28;20039;-70
2022/04/19 05:28:01;;;;;;;19.98;12.00;;;9.80;58.00;;;;;;5117031;28;20040;-69
2022/04/19 05:30:26;;;;;;;20.83;11.50;;;9.80;58.10;;;;;;5116897;28;20109;-69
2022/04/19 05:32:52;;;;;;;17.65;10.98;;;9.80;57.90;;;;;;5116833;28;20035;-70
2022/04/19 05:35:18;;;;;;;20.90;11.60;;;9.90;57.90;;;;;;5116845;28;20028;-69
2022/04/19 05:37:43;;;;;;;18.02;11.20;;;9.90;57.80;;;;;;5116655;28;20054;-70
2022/04/19 05:40:10;;;;;;;18.50;11.00;;;10.00;57.70;;;;;;5116735;28;20028;-70
2022/04/19 05:42:36;;;;;;;18.98;10.95;;;10.10;57.60;;;;;;5116643;28;20020;-69
2022/04/19 05:45:02;;;;;;;16.25;10.13;;;10.20;57.80;;;;;;5116619;28;20028;-70
2022/04/19 05:47:27;;;;;;;15.98;10.63;;;10.20;57.70;;;;;;5116566;28;20036;-70
2022/04/19 05:49:53;;;;;;;27.00;11.88;;;10.20;57.70;;;;;;5116629;28;20032;-70
2022/04/19 05:52:18;;;;;;;20.92;11.32;;;10.30;57.50;;;;;;5116622;28;20055;-71
2022/04/19 05:54:44;;;;;;;17.90;11.05;;;10.30;57.70;;;;;;5116469;28;20028;-69
2022/04/19 05:57:10;;;;;;;20.85;11.57;;;10.30;57.70;;;;;;5116421;28;20473;-70
2022/04/19 05:59:36;;;;;;;22.13;11.80;;;10.40;57.50;;;;;;5116338;28;20012;-69
2022/04/19 06:04:54;;;;;;;19.63;11.40;;;10.60;57.80;;;;;;5116525;28;20088;-70
2022/04/19 06:07:20;;;;;;;21.80;11.18;;;10.70;57.90;;;;;;5116397;28;20028;-70
2022/04/19 06:09:45;;;;;;;18.98;10.40;;;10.70;58.10;;;;;;5116125;28;20031;-69
2022/04/19 06:12:11;;;;;;;16.48;9.63;;;10.80;57.60;;;;;;5116101;28;20036;-69
2022/04/19 06:14:38;;;;;;;15.50;9.32;;;10.90;57.80;;;;;;5116117;28;20053;-69
2022/04/19 06:17:03;;;;;;;16.70;10.00;;;11.00;58.60;;;;;;5115831;28;20086;-69
2022/04/19 06:19:30;;;;;;;18.20;9.25;;;11.10;57.90;;;;;;5115883;28;20025;-68
2022/04/19 06:21:56;;;;;;;16.10;9.00;;;11.20;58.30;;;;;;5115958;28;20024;-70
2022/04/19 06:24:22;;;;;;;16.95;9.35;;;11.30;59.40;;;;;;5098054;28;20024;-69
2022/04/19 06:26:48;;;;;;;15.25;9.23;;;11.30;58.00;;;;;;5115819;28;20028;-67
2022/04/19 06:29:14;;;;;;;19.48;9.63;;;11.40;57.80;;;;;;5097747;28;20042;-69
2022/04/19 06:31:43;;;;;;;17.30;10.10;;;11.50;57.60;;;;;;5115772;28;20024;-69
2022/04/19 06:34:10;;;;;;;16.98;8.65;;;11.60;57.40;;;;;;5114652;28;20020;-69
2022/04/19 06:36:35;;;;;;;16.88;9.05;;;11.70;57.50;;;;;;5115616;28;20020;-70
2022/04/19 06:39:01;;;;;;;17.20;9.00;;;11.80;57.30;;;;;;5115717;28;20030;-70
2022/04/19 06:41:26;;;;;;;18.33;9.07;;;11.90;57.00;;;;;;5115568;28;20050;-70
2022/04/19 06:43:58;;;;;;;18.40;9.50;;;11.90;56.20;;;;;;5115638;28;20422;-68
2022/04/19 06:46:27;;;;;;;18.13;9.15;;;12.10;56.30;;;;;;5115624;28;20044;-69
2022/04/19 06:48:56;;;;;;;15.93;9.02;;;12.10;56.10;;;;;;5115380;28;20071;-69
2022/04/19 06:51:23;;;;;;;15.90;8.52;;;12.20;56.30;;;;;;5115369;28;20028;-69
2022/04/19 06:53:49;;;;;;;16.52;9.05;;;12.30;56.10;;;;;;5115320;28;20024;-70
2022/04/19 06:56:18;;;;;;;16.35;8.88;;;12.40;56.00;;;;;;5115178;28;20032;-70
2022/04/19 06:58:44;;;;;;;18.65;9.15;;;12.50;56.00;;;;;;5115262;28;20018;-68
2022/04/19 07:01:10;;;;;;;14.23;8.43;;;12.60;55.70;;;;;;5115191;28;20024;-69
2022/04/19 07:03:37;;;;;;;14.95;8.63;;;12.70;55.00;;;;;;5115141;28;20017;-69
2022/04/19 07:06:03;;;;;;;14.82;8.55;;;12.80;54.50;;;;;;5115093;28;20056;-68
2022/04/19 07:08:30;;;;;;;16.35;8.73;;;12.90;54.40;;;;;;5115040;28;20012;-69
2022/04/19 07:10:56;;;;;;;15.15;8.80;;;13.00;54.80;;;;;;5114944;28;20038;-68
2022/04/19 07:13:23;;;;;;;16.98;8.40;;;13.20;53.90;;;;;;5114947;28;20021;-69
2022/04/19 07:15:49;;;;;;;15.55;8.30;;;13.30;53.80;;;;;;5114864;28;20051;-69
2022/04/19 07:18:16;;;;;;;16.15;8.10;;;13.30;53.10;;;;;;5114598;28;20048;-68
2022/04/19 07:28:58;;;;;;;16.13;8.07;;;13.60;51.60;;;;;;5114709;28;20081;-68
2022/04/19 07:31:24;;;;;;;14.20;7.60;;;13.70;51.10;;;;;;5114590;28;20032;-68
2022/04/19 07:33:49;;;;;;;15.45;7.57;;;13.80;51.00;;;;;;5114525;28;20023;-69
2022/04/19 07:36:15;;;;;;;16.75;8.65;;;13.90;50.70;;;;;;5114419;28;20459;-69
2022/04/19 07:38:41;;;;;;;17.05;7.95;;;14.00;50.20;;;;;;5114436;28;20024;-69
2022/04/19 07:41:07;;;;;;;18.25;7.68;;;14.10;49.90;;;;;;5114501;28;20044;-69
2022/04/19 07:43:32;;;;;;;16.48;7.32;;;14.10;49.90;;;;;;5114385;28;20058;-69
2022/04/19 07:45:58;;;;;;;16.92;7.82;;;14.20;50.10;;;;;;5114133;28;20028;-69
2022/04/19 07:48:24;;;;;;;15.10;6.97;;;14.30;49.80;;;;;;5114261;28;20020;-69
2022/04/19 07:50:50;;;;;;;15.20;7.50;;;14.40;49.80;;;;;;5114251;28;20065;-69
2022/04/19 07:53:16;;;;;;;15.38;7.28;;;14.60;48.70;;;;;;5114189;28;20032;-69
2022/04/19 07:55:42;;;;;;;14.55;7.38;;;14.70;49.80;;;;;;5114140;28;20024;-69
2022/04/19 07:58:08;;;;;;;14.63;7.22;;;14.80;49.10;;;;;;5114032;28;20032;-69
2022/04/19 08:00:34;;;;;;;12.35;6.47;;;14.90;49.40;;;;;;5114025;28;20031;-69
2022/04/19 08:02:59;;;;;;;14.07;6.65;;;15.00;48.70;;;;;;5114043;28;20080;-69
2022/04/19 08:05:26;;;;;;;12.77;6.20;;;15.10;48.60;;;;;;5096029;28;20096;-69
2022/04/19 08:07:52;;;;;;;12.93;5.95;;;15.20;48.60;;;;;;5113944;28;20024;-69
2022/04/19 08:10:19;;;;;;;11.90;5.97;;;15.20;47.50;;;;;;5113880;28;20120;-69
2022/04/19 08:12:45;;;;;;;12.07;5.60;;;15.40;46.40;;;;;;5113820;28;20151;-70
2022/04/19 08:15:13;;;;;;;13.25;6.43;;;15.50;46.10;;;;;;5113820;28;20034;-70
2022/04/19 08:17:39;;;;;;;9.73;5.38;;;15.50;45.50;;;;;;5113563;28;20048;-69
2022/04/19 08:20:05;;;;;;;11.60;4.95;;;15.60;45.40;;;;;;5113768;28;20169;-69
2022/04/19 08:22:31;;;;;;;13.05;5.38;;;15.60;45.20;;;;;;5113721;28;20020;-70
2022/04/19 08:24:57;;;;;;;11.98;5.63;;;15.70;44.80;;;;;;5113658;28;20020;-70
2022/04/19 08:27:22;;;;;;;10.43;5.10;;;15.80;45.30;;;;;;5113650;28;20028;-70
2022/04/19 08:29:48;;;;;;;11.05;4.97;;;15.90;44.20;;;;;;5113595;28;20024;-70
2022/04/19 08:32:14;;;;;;;10.10;5.32;;;15.90;44.20;;;;;;5113558;28;20058;-69
2022/04/19 08:34:41;;;;;;;8.55;4.40;;;16.10;44.10;;;;;;5113538;28;20088;-69
2022/04/19 08:37:07;;;;;;;10.50;4.18;;;16.10;43.00;;;;;;5113401;28;20075;-69
2022/04/19 08:39:33;;;;;;;9.52;4.45;;;16.20;43.70;;;;;;5095647;28;20024;-70
2022/04/19 08:41:59;;;;;;;8.38;4.45;;;16.40;44.00;;;;;;5113425;28;20083;-70
2022/04/19 08:44:25;;;;;;;7.18;4.07;;;16.50;43.20;;;;;;5113444;28;20024;-68
2022/04/19 08:46:54;;;;;;;11.35;4.60;;;16.60;42.60;;;;;;5113365;28;20024;-68
2022/04/19 08:49:20;;;;;;;9.07;4.30;;;16.60;42.60;;;;;;5113398;28;20083;-68
2022/04/19 08:51:46;;;;;;;11.23;4.75;;;16.70;43.00;;;;;;5113507;28;20051;-69
2022/04/19 08:59:41;;;;;;;11.80;4.40;;;16.80;41.10;;;;;;5117798;28;20039;-69
2022/04/19 09:02:17;;;;;;;8.07;4.03;;;16.90;41.40;;;;;;5117491;28;20020;-70
2022/04/19 09:04:43;;;;;;;7.72;3.78;;;17.00;41.00;;;;;;5117656;28;20080;-70
2022/04/19 09:07:09;;;;;;;8.23;4.32;;;17.00;41.00;;;;;;5117389;28;20032;-70
2022/04/19 09:09:35;;;;;;;10.48;4.50;;;17.10;40.90;;;;;;5117514;28;20028;-70
2022/04/19 09:12:12;;;;;;;8.85;4.70;;;17.10;41.30;;;;;;5117275;28;20051;-70
2022/04/19 09:15:03;;;;;;;10.90;4.32;;;17.20;40.70;;;;;;5117167;28;20020;-69
2022/04/19 09:17:36;;;;;;;10.25;4.50;;;17.20;41.20;;;;;;5116855;28;20044;-68
2022/04/19 09:20:18;;;;;;;9.20;4.63;;;17.30;40.80;;;;;;5117337;28;20054;-69
2022/04/19 09:22:45;;;;;;;10.60;5.43;;;17.30;41.00;;;;;;5117159;28;20031;-69
2022/04/19 09:25:25;;;;;;;8.98;4.93;;;17.40;41.20;;;;;;5116984;28;20266;-69
2022/04/19 09:27:51;;;;;;;8.40;3.72;;;17.40;40.20;;;;;;5116976;28;20024;-69
2022/04/19 09:30:21;;;;;;;8.77;4.80;;;17.50;41.30;;;;;;5116922;28;20024;-69
2022/04/19 09:33:00;;;;;;;8.75;4.43;;;17.60;41.40;;;;;;5116864;28;20089;-69
2022/04/19 09:35:29;;;;;;;7.95;4.80;;;17.70;42.20;;;;;;5116864;28;20038;-70
2022/04/19 09:37:55;;;;;;;9.02;4.45;;;17.80;40.80;;;;;;5116748;28;20080;-70
2022/04/19 09:40:29;;;;;;;8.68;4.60;;;17.90;40.20;;;;;;5116773;28;20056;-69
2022/04/19 09:42:55;;;;;;;8.80;4.40;;;18.00;40.30;;;;;;5116715;28;20374;-70
2022/04/19 09:45:28;;;;;;;6.90;3.95;;;17.90;40.80;;;;;;5116717;28;20036;-69
2022/04/19 09:47:54;;;;;;;8.85;4.05;;;18.00;40.00;;;;;;5116612;28;20050;-69
2022/04/19 09:50:20;;;;;;;9.43;4.22;;;18.10;40.20;;;;;;5116564;28;20021;-70
2022/04/19 09:52:50;;;;;;;7.72;4.28;;;18.10;38.60;;;;;;5116513;28;20020;-69
2022/04/19 09:55:16;;;;;;;9.00;3.60;;;18.10;36.80;;;;;;5116477;28;20051;-69
2022/04/19 09:57:47;;;;;;;7.57;3.83;;;18.00;37.30;;;;;;5116421;28;20119;-70
2022/04/19 10:00:14;;;;;;;8.82;3.72;;;17.90;39.20;;;;;;5116457;28;20043;-69
2022/04/19 10:08:19;;;;;;;8.50;3.92;;;18.30;39.60;;;;;;5116404;28;20058;-69
2022/04/19 10:10:46;;;;;;;7.97;3.85;;;18.40;39.20;;;;;;5116253;28;20032;-70
2022/04/19 10:13:13;;;;;;;8.80;4.53;;;18.50;38.60;;;;;;5116171;28;20058;-69
2022/04/19 10:15:40;;;;;;;7.57;4.43;;;18.60;38.30;;;;;;5116062;28;20024;-70
2022/04/19 10:18:07;;;;;;;7.82;4.22;;;18.60;38.90;;;;;;5115858;28;20042;-70
2022/04/19 10:20:44;;;;;;;7.97;4.15;;;18.70;38.60;;;;;;5116019;28;20044;-70
2022/04/19 10:23:10;;;;;;;8.90;4.40;;;18.80;38.40;;;;;;5116002;28;20031;-69
2022/04/19 10:25:44;;;;;;;9.50;4.40;;;18.80;38.60;;;;;;5115901;28;20031;-70
2022/04/19 10:28:24;;;;;;;10.32;4.32;;;18.80;38.40;;;;;;5115716;28;20087;-69
2022/04/19 10:30:52;;;;;;;10.32;4.63;;;18.90;38.00;;;;;;5115852;28;20020;-69
2022/04/19 10:33:51;;;;;;;11.05;4.00;;;19.00;38.30;;;;;;5115924;28;20020;-70
2022/04/19 10:36:37;;;;;;;9.55;3.60;;;19.00;38.50;;;;;;5115621;28;20027;-69
2022/04/19 10:39:12;;;;;;;7.03;3.50;;;19.00;36.30;;;;;;5115742;28;20024;-68
2022/04/19 10:42:05;;;;;;;7.35;3.47;;;19.00;35.70;;;;;;5115580;28;20022;-70
2022/04/19 10:44:48;;;;;;;5.80;3.20;;;19.00;37.40;;;;;;5111467;28;20056;-69
2022/04/19 10:47:19;;;;;;;7.32;3.70;;;19.10;38.00;;;;;;5115621;28;20047;-69
2022/04/19 10:49:47;;;;;;;5.32;2.90;;;19.20;37.00;;;;;;5097584;28;20032;-69
2022/04/19 10:52:38;;;;;;;5.70;3.35;;;19.40;36.60;;;;;;5115347;28;20035;-69
2022/04/19 10:55:14;;;;;;;7.60;3.58;;;19.50;35.80;;;;;;5115379;28;20024;-69
2022/04/19 10:58:23;;;;;;;9.32;3.30;;;19.50;36.20;;;;;;5115215;28;20080;-70
2022/04/19 11:00:56;;;;;;;8.75;4.28;;;19.60;35.60;;;;;;5115276;28;20035;-70
2022/04/19 11:03:34;;;;;;;9.73;4.20;;;19.80;36.10;;;;;;5115227;28;20025;-71
2022/04/19 11:06:02;;;;;;;8.00;4.15;;;19.80;35.40;;;;;;5115287;28;20157;-70
2022/04/19 11:08:31;;;;;;;9.95;4.30;;;19.90;36.40;;;;;;5115086;28;20020;-70
2022/04/19 11:11:03;;;;;;;6.20;3.17;;;20.00;35.80;;;;;;5115028;28;20020;-71
2022/04/19 11:13:31;;;;;;;6.78;3.63;;;20.00;35.30;;;;;;5115045;28;20039;-71
2022/04/19 11:16:00;;;;;;;9.90;3.90;;;20.10;35.10;;;;;;5114905;28;20020;-71
2022/04/19 11:18:27;;;;;;;8.13;4.20;;;20.10;35.00;;;;;;5114628;28;20052;-70
2022/04/19 11:20:59;;;;;;;10.55;4.68;;;20.10;33.90;;;;;;5114304;28;20024;-70
2022/04/19 11:23:27;;;;;;;7.75;3.55;;;20.10;34.30;;;;;;5114957;28;20031;-70
2022/04/19 11:25:56;;;;;;;6.30;3.58;;;20.10;33.70;;;;;;5114780;28;20023;-71
2022/04/19 11:28:25;;;;;;;8.45;3.55;;;20.10;34.30;;;;;;5114661;28;20032;-69
2022/04/19 11:30:50;;;;;;;7.10;3.85;;;20.10;33.40;;;;;;5114665;28;20034;-70
2022/04/19 11:33:35;;;;;;;8.65;4.03;;;20.00;33.30;;;;;;5114593;28;20028;-70
2022/04/19 11:36:06;;;;;;;10.95;4.35;;;19.80;33.50;;;;;;5114709;28;20028;-71
2022/04/19 11:38:49;;;;;;;8.98;3.45;;;19.80;34.70;;;;;;5114479;28;20056;-70
2022/04/19 11:46:56;;;;;;;9.27;3.72;;;20.00;35.20;;;;;;5114565;28;20042;-70
2022/04/19 11:49:22;;;;;;;7.45;4.07;;;20.00;34.40;;;;;;5114313;28;20024;-70
2022/04/19 11:51:56;;;;;;;8.38;3.80;;;20.20;35.10;;;;;;5114240;28;20042;-70
2022/04/19 11:54:27;;;;;;;9.13;3.85;;;20.20;35.00;;;;;;5114293;28;20024;-70
2022/04/19 11:57:04;;;;;;;12.60;4.07;;;20.30;33.50;;;;;;5114055;28;20039;-70
2022/04/19 11:59:38;;;;;;;10.00;4.05;;;20.40;33.90;;;;;;5114139;28;20031;-70
2022/04/19 12:02:11;;;;;;;7.93;3.83;;;20.40;33.00;;;;;;5114064;28;20042;-68
2022/04/19 12:04:36;;;;;;;9.35;3.92;;;20.40;34.30;;;;;;5114038;28;20024;-70
2022/04/19 12:07:03;;;;;;;8.68;4.18;;;20.50;34.10;;;;;;5113991;28;20035;-69
2022/04/19 12:09:30;;;;;;;8.27;3.90;;;20.60;34.60;;;;;;5114043;28;20028;-70
2022/04/19 12:11:56;;;;;;;9.18;4.32;;;20.60;33.40;;;;;;5113817;28;20083;-68
2022/04/19 12:14:29;;;;;;;10.73;5.00;;;20.70;35.10;;;;;;5113847;28;20028;-69
2022/04/19 12:16:59;;;;;;;9.20;4.45;;;20.70;33.40;;;;;;5113573;28;20499;-70
2022/04/19 12:19:44;;;;;;;11.52;4.85;;;20.80;33.60;;;;;;5113883;28;20023;-70
2022/04/19 12:22:21;;;;;;;11.95;4.32;;;20.80;33.70;;;;;;5113205;28;20560;-70
2022/04/19 12:24:58;;;;;;;8.52;4.55;;;20.90;34.30;;;;;;5113625;28;20088;-70
2022/04/19 12:27:29;;;;;;;7.68;4.25;;;21.00;33.40;;;;;;5113733;28;20024;-70
2022/04/19 12:30:08;;;;;;;9.80;4.65;;;21.10;33.90;;;;;;5113515;28;20020;-69
2022/04/19 12:32:56;;;;;;;7.30;4.43;;;21.20;33.60;;;;;;5112827;28;20055;-69
2022/04/19 12:35:34;;;;;;;8.50;4.43;;;21.30;32.70;;;;;;5113553;28;20035;-70
2022/04/19 12:38:06;;;;;;;7.97;4.72;;;21.30;33.70;;;;;;5113478;28;20032;-70
2022/04/19 12:40:33;;;;;;;10.98;4.68;;;21.50;33.00;;;;;;5113463;28;20047;-71
2022/04/19 12:43:00;;;;;;;7.13;4.18;;;21.50;33.30;;;;;;5113428;28;20364;-70
2022/04/19 12:45:37;;;;;;;7.75;4.07;;;21.60;32.70;;;;;;5113367;28;20012;-71
2022/04/19 12:48:03;;;;;;;8.15;4.05;;;21.70;32.00;;;;;;5113446;28;20059;-70
2022/04/19 12:50:29;;;;;;;12.02;4.95;;;21.70;32.90;;;;;;5113415;28;20021;-70
2022/04/19 12:52:55;;;;;;;9.50;4.50;;;21.80;31.90;;;;;;5113395;28;20036;-69
2022/04/19 12:55:31;;;;;;;9.20;4.72;;;21.70;31.30;;;;;;5113508;28;20024;-70
2022/04/19 12:58:09;;;;;;;7.72;4.47;;;21.60;33.10;;;;;;5113416;28;20034;-70
2022/04/19 13:00:36;;;;;;;8.15;4.10;;;21.60;33.00;;;;;;5113310;28;20084;-70
2022/04/19 13:03:03;;;;;;;6.80;3.75;;;21.60;33.30;;;;;;5113291;28;20016;-69
2022/04/19 13:13:41;;;;;;;7.45;3.58;;;21.90;31.90;;;;;;5113452;28;20035;-70
2022/04/19 13:16:07;;;;;;;7.88;3.80;;;21.80;32.10;;;;;;5113120;28;20033;-70
2022/04/19 13:18:33;;;;;;;8.13;3.88;;;22.00;32.70;;;;;;5112921;28;20090;-70
2022/04/19 13:20:59;;;;;;;11.35;3.58;;;22.00;32.00;;;;;;5113208;28;20074;-69
2022/04/19 13:23:25;;;;;;;8.32;3.30;;;22.10;31.80;;;;;;5113211;28;20032;-70
2022/04/19 13:25:51;;;;;;;4.95;3.15;;;22.20;31.90;;;;;;5095428;28;20021;-69
2022/04/19 13:28:17;;;;;;;6.53;3.45;;;22.20;31.80;;;;;;5095042;28;20470;-68
2022/04/19 13:30:43;;;;;;;5.10;3.42;;;22.20;32.40;;;;;;5113050;28;20032;-69
2022/04/19 13:33:09;;;;;;;4.90;3.40;;;22.10;31.80;;;;;;5113035;28;20478;-69
2022/04/19 13:35:35;;;;;;;5.22;3.08;;;22.10;31.70;;;;;;5113000;28;20031;-69